Portada
METAR-TAF:

METAR-TAF

Aeroports :

Gonabad, Iran

latitud: 34-22-51N, longitud: 58-38-23E, altitud: 1100 m

Observació

L'informe es va fer fa 37 minuts, a les 23:00 UTC
Vent 10 kt del Sud/Sud-Oest
Temperatura 1°C
Humitat 19%
Pressió 1022 hPa

METAR: OIMD 132300Z AUTO 21010KT //// // ////// 01/M20 Q1022

Hora: 03:07 (23:37 UTC)


TAF: manca

Observacions i pronòstics meteorològics de més de 4000 aeroports (METAR i TAF).

Les estacions disponibles són els punts grocs i vermells al mapa.

Posi el ratolí al punt desitjat per veure el nom de l'estació.

Feu clic per veure les observacions i els pronòstics meteorològics.

Per canviar el mapa: feu clic els botons verds amb una creu de color negre per apropar; al botó verd amb un guió per allunyar la imatge; o en les fletxes verdes per a mapes adjacents.


METAR-TAF: